Latest Weather Observations for Gelantipy

IDV60801

Issued at 10:31 pm EDT Thursday 5 March 2015 (issued every 30 minutes, with the page automatically refreshed every 10 minutes)

About weather observations | Map of weather stations | Latest weather observations for VIC | Other Formats
Station Details ID: 084142 Name: GELANTIPY Lat: -37.22 Lon: 148.26 Height: 755.0 m
Data from the previous 72 hours. | See also: Recent months at Gelantipy
Date/Time
EDT
Temp
°C
App
Temp
°C
Dew
Point
Rel
Hum
%
Delta-T
°C
Wind Press
QNH
hPa
Press
MSL
hPa
Rain
since 9 am
mm
Dir
 
Spd
km/h
Gust
km/h
Spd
kts
Gust
kts
05/10:30pm 7.3 4.5 2.2 70 2.2 NNE 6 7 3 4 1011.9 1009.8 0.0
05/10:00pm 8.2 6.5 1.8 64 2.8 CALM 0 0 0 0 1012.3 1010.2 0.0
05/09:30pm 8.0 5.2 2.0 66 2.6 SW 6 13 3 7 1012.8 1010.7 0.0
05/09:00pm 7.7 4.4 2.6 70 2.2 WSW 9 15 5 8 1012.9 1010.8 0.0
05/08:30pm 8.1 4.9 2.8 69 2.3 SW 9 13 5 7 1012.5 1010.5 0.0
05/08:00pm 8.7 5.7 2.1 63 2.9 SW 7 9 4 5 1012.5 1010.5 0.0
05/07:30pm 9.9 6.6 2.3 59 3.4 SW 9 15 5 8 1012.6 1010.6 0.0
05/07:00pm 11.1 7.0 2.4 55 3.9 SW 13 20 7 11 1012.8 1010.7 0.0
05/06:30pm 11.6 7.0 1.8 51 4.4 SSW 15 22 8 12 1012.5 1010.5 0.0
05/06:00pm 12.5 7.3 2.4 50 4.6 SW 19 26 10 14 1012.5 1010.5 0.0
05/05:30pm 12.8 8.5 3.5 53 4.3 SSW 15 24 8 13 1012.5 1010.5 0.0
05/05:00pm 13.1 8.0 2.9 50 4.7 SW 19 28 10 15 1012.6 1010.6 0.0
05/04:34pm 12.9 6.0 2.7 50 4.7 WSW 28 46 15 25 1012.6 1010.6 0.0
05/04:30pm 12.7 6.3 3.1 52 4.4 SW 26 41 14 22 1012.6 1010.6 0.0
05/04:00pm 12.8 5.3 3.2 52 4.5 WSW 32 43 17 23 1013.2 1011.1 0.0
05/03:42pm 12.5 5.1 2.1 49 4.7 SW 30 48 16 26 1013.2 1011.1 0.0
05/03:30pm 12.4 5.2 3.1 53 4.3 SW 30 43 16 23 1013.3 1011.2 0.0
05/03:00pm 12.8 6.9 3.7 54 4.3 SW 24 43 13 23 1013.2 1011.1 0.0
05/02:35pm 12.9 6.1 3.0 51 4.6 SW 28 46 15 25 1013.4 1011.3 0.0
05/02:30pm 12.6 6.6 3.5 54 4.2 SW 24 41 13 22 1013.4 1011.3 0.0
05/02:00pm 12.2 6.0 4.2 58 3.8 SW 26 39 14 21 1013.7 1011.7 0.0
05/01:33pm 11.3 3.5 2.6 55 3.9 SW 33 52 18 28 1013.9 1011.9 0.0
05/01:30pm 11.1 2.9 2.9 57 3.7 WSW 35 52 19 28 1014.0 1012.0 0.0
05/01:03pm 12.6 5.1 3.5 54 4.2 WSW 32 50 17 27 1013.8 1011.8 0.0
05/01:00pm 12.1 4.8 2.3 51 4.4 SW 30 50 16 27 1013.9 1011.9 0.0
05/12:45pm 11.4 4.4 2.2 53 4.1 SW 28 46 15 25 1014.0 1012.0 0.0
05/12:41pm 11.4 3.4 1.6 51 4.3 SW 33 54 18 29 1013.9 1011.9 0.0
05/12:30pm 11.4 1.9 1.6 51 4.3 WSW 41 59 22 32 1013.9 1011.9 0.0
05/12:00pm 10.9 0.1 -0.2 46 4.7 WSW 46 70 25 38 1013.8 1011.8 0.0
05/11:30am 10.6 1.1 1.7 54 3.9 SW 41 67 22 36 1013.6 1011.6 0.0
05/11:00am 10.0 1.7 2.4 59 3.4 SW 35 59 19 32 1013.5 1011.4 0.0
05/10:30am 9.4 1.5 2.3 61 3.1 WSW 33 52 18 28 1013.0 1010.9 0.0
05/10:00am 8.9 -0.5 2.3 63 2.9 WSW 41 63 22 34 1012.6 1010.6 0.0
05/09:30am 8.5 1.4 1.6 62 3.0 SW 28 54 15 29 1012.2 1010.1 0.0
05/09:04am 8.4 1.4 2.2 65 2.7 SW 28 54 15 29 1012.0 1009.9 0.0
05/09:00am 8.3 2.2 2.5 67 2.6 SW 24 54 13 29 1011.8 1009.7 1.8
05/08:42am 7.8 0.7 3.8 76 1.8 SW 30 48 16 26 1012.0 1009.9 1.8
05/08:30am 7.5 0.0 4.5 81 1.4 SW 33 46 18 25 1011.7 1009.6 1.8
05/08:11am 7.3 0.9 5.3 87 0.9 SW 28 48 15 26 1011.7 1009.6 1.6
05/08:00am 6.9 1.3 5.5 91 0.7 SW 24 41 13 22 1011.2 1009.2 1.6
05/07:39am 6.9 0.6 5.8 93 0.5 SW 28 46 15 25 1010.4 1008.3 1.6
05/07:30am 7.0 0.7 5.9 93 0.5 SW 28 44 15 24 1010.3 1008.2 1.4
05/07:00am 8.1 3.0 7.5 96 0.3 SSW 24 41 13 22 1008.9 1006.7 1.0
05/06:30am 10.3 5.6 9.1 92 0.6 S 24 43 13 23 1007.8 1005.7 0.2
05/06:00am 13.5 9.2 5.4 58 4.0 W 17 32 9 17 1006.4 1004.2 0.0
05/05:30am 12.9 8.8 6.3 64 3.3 W 17 28 9 15 1006.4 1004.2 0.0
05/05:00am 12.3 8.1 5.7 64 3.2 W 17 24 9 13 1006.2 1004.0 0.0
05/04:30am 10.8 8.6 5.3 69 2.6 S 6 11 3 6 1006.2 1004.0 0.0
05/04:00am 11.6 7.2 5.0 64 3.2 W 17 20 9 11 1006.2 1004.0 0.0
05/03:30am 12.2 8.8 4.2 58 3.8 W 11 13 6 7 1006.1 1003.9 0.0
05/03:00am 12.2 8.5 4.4 59 3.7 W 13 17 7 9 1006.2 1004.0 0.0
05/02:30am 12.7 8.9 3.9 55 4.1 WNW 13 26 7 14 1006.4 1004.2 0.0
05/02:00am 12.5 10.0 3.7 55 4.1 WNW 6 7 3 4 1006.7 1004.6 0.0
05/01:30am 10.7 9.6 8.3 85 1.2 E 4 9 2 5 1007.4 1005.2 0.0
05/01:00am 10.6 9.1 9.2 91 0.7 N 7 11 4 6 1008.0 1005.9 0.0
05/12:30am 10.5 9.4 10.0 97 0.3 SSE 6 7 3 4 1008.2 1006.1 0.0
05/12:00am 10.5 8.1 10.2 98 0.2 NE 13 15 7 8 1008.0 1005.9 0.0
 
Date/Time
EDT
Temp
°C
App
Temp
°C
Dew
Point
Rel
Hum
%
Delta-T
°C
Wind Press
QNH
hPa
Press
MSL
hPa
Rain
since 9 am
mm
Dir
 
Spd
km/h
Gust
km/h
Spd
kts
Gust
kts
04/11:30pm 10.4 8.8 10.1 98 0.2 NE 9 11 5 6 1008.7 1006.5 0.0
04/11:00pm 10.4 10.4 9.9 97 0.3 CALM 0 4 0 2 1009.4 1007.3 0.0
04/10:30pm 11.4 10.3 10.8 96 0.3 N 7 9 4 5 1010.0 1007.8 0.0
04/10:00pm 12.1 12.5 11.3 95 0.4 CALM 0 0 0 0 1010.6 1008.5 0.0
04/09:30pm 12.5 11.9 11.6 94 0.5 SW 6 7 3 4 1010.9 1008.8 0.0
04/09:00pm 12.9 12.3 11.6 92 0.7 WSW 6 7 3 4 1010.9 1008.8 0.0
04/08:30pm 13.7 13.0 12.1 90 0.9 SW 7 9 4 5 1010.8 1008.7 0.0
04/08:00pm 14.7 13.7 12.2 85 1.4 SSW 9 20 5 11 1010.7 1008.6 0.0
04/07:30pm 16.1 15.3 13.0 82 1.8 SSW 9 15 5 8 1010.4 1008.3 0.0
04/07:00pm 17.6 17.0 13.5 77 2.4 SSW 9 17 5 9 1010.2 1008.1 0.0
04/06:30pm 18.8 18.3 13.9 73 2.9 SSW 9 15 5 8 1010.1 1007.9 0.0
04/06:00pm 19.7 19.4 14.5 72 3.1 S 9 13 5 7 1010.2 1008.1 0.0
04/05:30pm 20.0 19.3 14.4 70 3.4 SSW 11 20 6 11 1010.1 1007.9 0.0
04/05:00pm 20.6 19.2 14.5 68 3.7 S 15 20 8 11 1010.1 1007.9 0.0
04/04:30pm 21.4 20.6 14.1 63 4.4 SSW 11 17 6 9 1010.2 1008.1 0.0
04/04:00pm 21.3 20.5 13.0 59 4.9 S 9 17 5 9 1010.4 1008.3 0.0
04/03:30pm 21.2 19.5 12.6 58 5.0 S 13 24 7 13 1010.9 1008.8 0.0
04/03:00pm 21.3 19.9 13.5 61 4.7 S 13 17 7 9 1011.5 1009.4 0.0
04/02:30pm 21.7 20.9 13.9 61 4.7 S 11 19 6 10 1011.7 1009.6 0.0
04/02:00pm 21.4 20.3 13.1 59 4.9 S 11 19 6 10 1012.0 1009.9 0.0
04/01:30pm 21.5 21.0 13.7 61 4.7 SSE 9 13 5 7 1012.3 1010.2 0.0
04/01:00pm 20.9 20.6 13.4 62 4.5 N 7 11 4 6 1012.9 1010.8 0.0
04/12:30pm 19.9 18.7 12.9 64 4.1 NE 11 17 6 9 1013.3 1011.2 0.0
04/12:00pm 19.5 18.5 13.4 68 3.6 NE 11 15 6 8 1013.7 1011.7 0.0
04/11:30am 18.2 17.0 14.1 77 2.4 NNE 13 20 7 11 1014.2 1012.1 0.0
04/11:00am 17.4 16.0 13.3 77 2.4 NE 13 22 7 12 1014.4 1012.3 0.0
04/10:30am 16.4 14.5 12.9 80 2.0 NE 15 20 8 11 1014.7 1012.6 0.0
04/10:00am 15.4 13.6 12.2 81 1.8 NNE 13 19 7 10 1015.0 1013.0 0.0
04/09:30am 13.8 13.0 13.0 95 0.5 NNE 9 15 5 8 1015.3 1013.3 0.0
04/09:00am 13.1 14.1 13.1 100 0.0 CALM 0 0 0 0 1015.6 1013.5 0.0
04/08:30am 12.5 13.3 12.5 100 0.0 CALM 0 0 0 0 1015.7 1013.6 0.0
04/08:00am 11.8 12.4 11.8 100 0.0 CALM 0 0 0 0 1015.4 1013.4 0.0
04/07:30am 11.2 11.5 11.0 99 0.1 CALM 0 0 0 0 1015.2 1013.2 0.0
04/07:00am 10.4 10.5 10.2 99 0.1 CALM 0 0 0 0 1014.8 1012.8 0.0
04/06:30am 10.7 10.9 10.5 99 0.1 CALM 0 0 0 0 1014.6 1012.5 0.0
04/06:00am 10.1 8.4 9.8 98 0.2 NNE 9 11 5 6 1014.3 1012.2 0.0
04/05:30am 10.7 9.7 10.2 97 0.3 NNE 6 9 3 5 1014.2 1012.1 0.0
04/05:00am 11.9 10.2 11.3 96 0.3 N 11 13 6 7 1013.9 1011.9 0.0
04/04:30am 13.0 12.5 12.5 97 0.3 NNW 7 9 4 5 1014.2 1012.1 0.0
04/04:00am 13.4 14.3 12.8 96 0.3 CALM 0 0 0 0 1014.4 1012.3 0.0
04/03:30am 13.5 14.3 12.7 95 0.5 CALM 0 0 0 0 1014.6 1012.5 0.0
04/03:00am 13.8 14.7 12.9 94 0.5 CALM 0 2 0 1 1014.8 1012.8 0.0
04/02:30am 14.0 14.9 12.9 93 0.6 CALM 0 0 0 0 1015.2 1013.2 0.0
04/02:00am 14.3 14.2 13.2 93 0.6 W 6 7 3 4 1015.6 1013.5 0.0
04/01:30am 14.4 15.4 13.1 92 0.7 CALM 0 0 0 0 1015.8 1013.7 0.0
04/01:00am 14.4 15.4 13.1 92 0.7 CALM 0 0 0 0 1015.9 1013.8 0.0
04/12:30am 14.4 15.4 13.1 92 0.7 CALM 0 0 0 0 1016.2 1014.2 0.0
04/12:00am 14.3 14.1 13.0 92 0.7 NNE 6 7 3 4 1016.4 1014.4 0.0
 
Date/Time
EDT
Temp
°C
App
Temp
°C
Dew
Point
Rel
Hum
%
Delta-T
°C
Wind Press
QNH
hPa
Press
MSL
hPa
Rain
since 9 am
mm
Dir
 
Spd
km/h
Gust
km/h
Spd
kts
Gust
kts
03/11:30pm 14.2 13.4 12.8 91 0.8 NW 9 11 5 6 1016.8 1014.8 0.0
03/11:00pm 14.1 13.8 12.8 92 0.7 WNW 6 7 3 4 1017.1 1015.1 0.0
03/10:30pm 14.1 15.0 12.8 92 0.7 CALM 0 0 0 0 1017.1 1015.1 0.0
03/10:00pm 14.1 14.9 12.7 91 0.8 CALM 0 0 0 0 1017.1 1015.1 0.0
03/09:30pm 14.0 13.7 12.6 91 0.8 WSW 6 7 3 4 1017.1 1015.1 0.0
03/09:00pm 14.1 14.9 12.7 91 0.8 CALM 0 0 0 0 1017.1 1015.1 0.0
03/08:30pm 14.1 13.6 12.7 91 0.8 SSW 7 11 4 6 1016.8 1014.8 0.0
03/08:00pm 14.2 12.9 12.6 90 0.9 SSE 11 17 6 9 1016.4 1014.4 0.0
03/07:30pm 14.6 14.1 12.8 89 1.0 S 7 13 4 7 1016.1 1014.1 0.0
03/07:00pm 14.9 14.5 12.9 88 1.1 SSW 7 13 4 7 1015.9 1013.8 0.0
03/06:30pm 15.8 15.2 13.5 86 1.3 S 9 19 5 10 1016.0 1014.0 0.0
03/06:00pm 16.8 15.4 13.5 81 1.9 S 13 20 7 11 1015.8 1013.7 0.0
03/05:30pm 17.9 17.2 14.2 79 2.2 SSW 11 19 6 10 1015.7 1013.6 0.0
03/05:00pm 18.4 17.6 13.0 71 3.1 SSW 9 17 5 9 1015.7 1013.6 0.0
03/04:30pm 19.1 18.3 12.8 67 3.7 S 9 15 5 8 1015.6 1013.5 0.0
03/04:00pm 19.1 18.5 13.5 70 3.3 S 9 15 5 8 1015.6 1013.5 0.0
03/03:30pm 19.1 18.3 12.8 67 3.7 SSW 9 19 5 10 1015.9 1013.8 0.0
03/03:00pm 19.0 18.3 13.2 69 3.4 SSE 9 17 5 9 1016.2 1014.2 0.0
03/02:30pm 18.4 16.8 11.7 65 3.8 SSE 11 17 6 9 1016.4 1014.4 0.0
03/02:00pm 18.0 16.9 12.0 68 3.4 S 9 13 5 7 1016.8 1014.8 0.0
03/01:30pm 17.5 16.2 11.3 67 3.5 S 9 13 5 7 1017.0 1014.9 0.0
03/01:00pm 17.2 15.8 11.0 67 3.5 SSE 9 13 5 7 1017.3 1015.3 0.0
03/12:30pm 16.8 15.7 10.6 67 3.4 SSE 7 13 4 7 1017.7 1015.7 0.0
03/12:00pm 16.2 14.9 10.1 67 3.3 ESE 7 11 4 6 1017.9 1015.9 0.0
03/11:30am 15.3 14.5 9.7 69 3.0 SSW 4 7 2 4 1018.2 1016.3 0.0
03/11:00am 14.6 13.4 10.4 76 2.3 SSW 7 11 4 6 1018.2 1016.3 0.0
03/10:30am 14.1 12.1 10.3 78 2.1 SSE 11 13 6 7 1017.9 1015.9 0.0
03/10:00am 14.2 13.2 12.2 88 1.1 SSE 9 13 5 7 1017.8 1015.8 0.0
03/09:30am 14.3 13.3 11.1 81 1.8 SSW 7 11 4 6 1018.0 1016.0 0.0
03/09:00am 14.6 13.9 10.0 74 2.5 SSW 4 9 2 5 1017.9 1015.9 0.0
03/08:30am 14.0 14.2 11.9 87 1.2 N 2 7 1 4 1017.5 1015.5 0.0
03/08:00am 13.0 12.2 11.1 88 1.0 NE 6 9 3 5 1017.2 1015.2 0.0
03/07:30am 12.2 12.1 10.9 92 0.7 ENE 2 7 1 4 1017.1 1015.1 0.0
03/07:00am 12.0 11.0 10.4 90 0.9 NNE 6 7 3 4 1016.5 1014.5 0.0
03/06:30am 12.2 12.5 10.9 92 0.7 CALM 0 0 0 0 1016.4 1014.4 0.0
03/06:00am 12.2 12.6 11.1 93 0.6 CALM 0 4 0 2 1016.0 1014.0 0.0
03/05:30am 12.3 12.6 11.0 92 0.7 CALM 0 2 0 1 1015.9 1013.8 0.0
03/05:00am 12.2 11.8 11.1 93 0.6 W 4 6 2 3 1015.4 1013.4 0.0
03/04:30am 12.3 12.6 10.9 91 0.8 CALM 0 0 0 0 1015.3 1013.3 0.0
03/04:00am 12.6 12.2 11.2 91 0.8 NNE 4 7 2 4 1015.4 1013.4 0.0
03/03:30am 12.5 12.9 11.1 91 0.8 CALM 0 4 0 2 1015.4 1013.4 0.0
03/03:00am 13.0 11.7 11.2 89 1.0 NNE 9 11 5 6 1015.2 1013.2 0.0
03/02:30am 13.1 12.2 11.3 89 1.0 N 7 9 4 5 1015.2 1013.2 0.0
03/02:00am 13.1 12.4 11.3 89 1.0 N 6 9 3 5 1015.6 1013.5 0.0
03/01:30am 13.7 11.8 11.7 88 1.1 NNE 13 19 7 10 1015.6 1013.5 0.0
03/01:00am 13.5 12.0 11.9 90 0.9 NE 11 15 6 8 1015.9 1013.8 0.0
03/12:30am 12.5 11.2 11.1 91 0.8 NNE 9 11 5 6 1016.1 1014.1 0.0
03/12:00am 12.4 11.3 10.8 90 0.9 NNE 7 9 4 5 1016.3 1014.3 0.0
 
Date/Time
EDT
Temp
°C
App
Temp
°C
Dew
Point
Rel
Hum
%
Delta-T
°C
Wind Press
QNH
hPa
Press
MSL
hPa
Rain
since 9 am
mm
Dir
 
Spd
km/h
Gust
km/h
Spd
kts
Gust
kts
02/11:30pm 12.3 10.9 10.9 91 0.8 N 9 9 5 5 1016.6 1014.6 0.0
02/11:00pm 12.3 11.4 11.2 93 0.6 NNE 7 7 4 4 1017.2 1015.2 0.0

Other Formats:

Comma delimited format used in spreadsheet applications
http://www.bom.gov.au/fwo/IDV60801/IDV60801.94913.axf

JavaScript Object Notation format (JSON) in row-major order
http://www.bom.gov.au/fwo/IDV60801/IDV60801.94913.json